Time;durP1;ratioP1;P1;durP2;ratioP2;P2;SDS_P1;SDS_P2;PMS_P1;PMS_P2;Temp;Humidity;BMP_temperature;BMP_pressure;BME280_temperature;BME280_humidity;BME280_pressure;Samples;Min_cycle;Max_cycle;Signal;HPM_P1;HPM_P2
2024/01/09 00:00:54;;;;;;;8.10;4.07;;;19.30;48.60;;;;;;5109447;27;20015;-52
2024/01/09 00:03:20;;;;;;;8.30;4.63;;;19.40;48.00;;;;;;5106970;27;20523;-51
2024/01/09 00:05:46;;;;;;;10.13;4.70;;;19.30;47.90;;;;;;5109984;28;20465;-56
2024/01/09 00:08:11;;;;;;;8.05;4.18;;;19.30;48.00;;;;;;5113248;27;20475;-56
2024/01/09 00:10:37;;;;;;;8.45;4.75;;;19.30;47.90;;;;;;5114068;27;20027;-57
2024/01/09 00:13:04;;;;;;;9.40;4.65;;;19.30;47.90;;;;;;5091378;28;20026;-51
2024/01/09 00:15:30;;;;;;;8.85;4.50;;;19.30;48.10;;;;;;5111950;27;20081;-57
2024/01/09 00:17:59;;;;;;;12.43;4.43;;;19.30;48.10;;;;;;5109538;27;20098;-55
2024/01/09 00:20:25;;;;;;;9.57;4.53;;;19.20;48.10;;;;;;5108319;28;20099;-57
2024/01/09 00:22:51;;;;;;;10.98;4.32;;;19.20;48.20;;;;;;5100771;28;20047;-56
2024/01/09 00:25:18;;;;;;;8.32;3.97;;;19.20;48.00;;;;;;5113037;27;20023;-56
2024/01/09 00:27:45;;;;;;;8.10;4.10;;;19.20;48.20;;;;;;5115782;27;20387;-57
2024/01/09 00:30:11;;;;;;;8.23;3.97;;;19.20;48.10;;;;;;5106672;27;20058;-49
2024/01/09 00:32:37;;;;;;;8.88;3.97;;;19.20;48.20;;;;;;5116022;27;20038;-57
2024/01/09 00:35:04;;;;;;;9.40;4.57;;;19.20;48.20;;;;;;5107729;28;20032;-56
2024/01/09 00:37:29;;;;;;;8.70;4.10;;;19.20;48.30;;;;;;5111237;27;20063;-53
2024/01/09 00:39:55;;;;;;;9.98;4.20;;;19.20;48.40;;;;;;5109941;27;20487;-57
2024/01/09 00:42:21;;;;;;;7.15;4.00;;;19.10;48.20;;;;;;5113644;27;20332;-57
2024/01/09 00:44:47;;;;;;;12.10;4.65;;;19.10;48.20;;;;;;5109825;27;20032;-57
2024/01/09 00:47:13;;;;;;;8.25;4.40;;;19.10;48.30;;;;;;5104994;28;20019;-56
2024/01/09 00:49:39;;;;;;;8.57;3.95;;;19.10;48.40;;;;;;5106599;28;20031;-54
2024/01/09 00:52:05;;;;;;;7.65;4.10;;;19.10;48.30;;;;;;5109032;28;20387;-56
2024/01/09 00:54:31;;;;;;;9.02;4.45;;;19.10;48.40;;;;;;5108633;28;20053;-57
2024/01/09 00:56:57;;;;;;;6.97;3.63;;;19.10;48.20;;;;;;5109344;28;20023;-55
2024/01/09 00:59:23;;;;;;;10.38;4.38;;;19.10;48.40;;;;;;5101363;28;20063;-55
2024/01/09 01:01:49;;;;;;;7.47;4.38;;;19.10;48.40;;;;;;5105909;28;20051;-51
2024/01/09 01:04:16;;;;;;;8.65;4.30;;;19.00;48.40;;;;;;5098180;28;20406;-52
2024/01/09 01:06:45;;;;;;;8.20;3.75;;;19.00;48.30;;;;;;5105218;28;20163;-51
2024/01/09 01:09:12;;;;;;;7.97;3.83;;;19.10;48.40;;;;;;5088717;28;20344;-51
2024/01/09 01:11:38;;;;;;;5.88;3.58;;;19.00;48.90;;;;;;5108641;28;20039;-54
2024/01/09 01:14:04;;;;;;;8.50;4.35;;;19.00;48.40;;;;;;5108741;28;20547;-56
2024/01/09 01:16:30;;;;;;;8.32;3.70;;;19.00;48.30;;;;;;5100545;28;20529;-56
2024/01/09 01:18:56;;;;;;;6.80;3.90;;;19.00;48.30;;;;;;5113802;27;20031;-57
2024/01/09 01:21:22;;;;;;;7.63;3.85;;;19.00;48.40;;;;;;5103127;28;20088;-54
2024/01/09 01:23:48;;;;;;;9.02;4.20;;;19.00;48.30;;;;;;5107905;28;20066;-58
2024/01/09 01:26:14;;;;;;;9.73;3.90;;;19.00;48.20;;;;;;5114390;27;20406;-57
2024/01/09 01:28:40;;;;;;;8.38;4.30;;;19.00;48.10;;;;;;5099584;28;20478;-57
2024/01/09 01:31:06;;;;;;;8.32;4.13;;;19.10;48.30;;;;;;5107279;28;20019;-58
2024/01/09 01:33:32;;;;;;;7.10;3.83;;;19.00;48.20;;;;;;5108045;28;20027;-58
2024/01/09 01:35:58;;;;;;;9.02;3.80;;;19.00;48.10;;;;;;5108527;28;20493;-55
2024/01/09 01:38:23;;;;;;;7.50;4.10;;;19.00;48.20;;;;;;5106717;28;20390;-54
2024/01/09 01:40:49;;;;;;;7.35;3.88;;;19.00;48.10;;;;;;5108026;28;20980;-57
2024/01/09 01:43:15;;;;;;;6.97;3.60;;;19.00;48.20;;;;;;5108391;28;20039;-57
2024/01/09 01:45:41;;;;;;;5.45;3.60;;;19.00;48.20;;;;;;5108246;28;20028;-57
2024/01/09 01:48:08;;;;;;;7.13;3.97;;;19.00;47.90;;;;;;5108842;28;20399;-57
2024/01/09 01:50:34;;;;;;;7.93;3.90;;;19.00;48.20;;;;;;5104621;28;20472;-57
2024/01/09 01:53:02;;;;;;;5.95;3.80;;;19.00;48.30;;;;;;5101743;28;20603;-57
2024/01/09 01:55:29;;;;;;;7.25;3.95;;;18.90;48.50;;;;;;5103392;28;20175;-57
2024/01/09 01:57:58;;;;;;;9.02;4.15;;;18.90;48.40;;;;;;5104883;28;20047;-57
2024/01/09 02:00:24;;;;;;;7.70;3.97;;;18.90;48.50;;;;;;5090820;28;20028;-57
2024/01/09 02:02:52;;;;;;;6.43;3.58;;;18.90;48.30;;;;;;5110219;28;20478;-52
2024/01/09 02:05:20;;;;;;;7.30;4.30;;;18.90;48.30;;;;;;5113425;28;20026;-57
2024/01/09 02:07:51;;;;;;;13.45;4.70;;;18.90;48.30;;;;;;5117521;28;20062;-53
2024/01/09 02:10:17;;;;;;;7.07;3.85;;;18.90;48.40;;;;;;5107380;28;20032;-53
2024/01/09 02:12:43;;;;;;;8.00;4.18;;;18.90;48.50;;;;;;5081092;28;20027;-56
2024/01/09 02:15:09;;;;;;;7.53;4.13;;;18.90;48.20;;;;;;5111868;28;20474;-53
2024/01/09 02:17:36;;;;;;;7.32;3.60;;;18.90;48.20;;;;;;5108956;28;20070;-54
2024/01/09 02:20:02;;;;;;;8.68;4.53;;;18.90;48.30;;;;;;5115309;28;20020;-56
2024/01/09 02:22:28;;;;;;;6.53;3.70;;;18.90;48.30;;;;;;5114679;28;20047;-56
2024/01/09 02:24:54;;;;;;;7.60;3.75;;;18.90;48.50;;;;;;5111764;28;20055;-53
2024/01/09 02:27:53;;;;;;;7.63;4.60;;;18.80;48.30;;;;;;5113775;28;20050;-51
2024/01/09 02:30:19;;;;;;;5.63;3.47;;;18.80;48.30;;;;;;5108229;28;20507;-55
2024/01/09 02:32:46;;;;;;;6.22;3.58;;;18.80;48.80;;;;;;5097307;28;20043;-52
2024/01/09 02:35:12;;;;;;;6.63;3.85;;;18.90;48.40;;;;;;5113840;28;20020;-50
2024/01/09 02:37:38;;;;;;;5.90;3.50;;;18.80;48.20;;;;;;5105536;28;20518;-53
2024/01/09 02:40:07;;;;;;;6.97;3.70;;;18.80;48.40;;;;;;5107178;28;20032;-53
2024/01/09 02:42:33;;;;;;;7.07;4.15;;;18.80;48.30;;;;;;5088998;28;20024;-49
2024/01/09 02:44:58;;;;;;;23.02;4.10;;;18.80;48.30;;;;;;5110967;28;20023;-51
2024/01/09 02:47:26;;;;;;;7.93;3.97;;;18.80;48.40;;;;;;5111355;28;20022;-56
2024/01/09 02:49:52;;;;;;;6.70;3.72;;;18.80;48.10;;;;;;5101314;28;20407;-52
2024/01/09 02:52:18;;;;;;;6.70;3.95;;;18.80;48.10;;;;;;5113368;27;20019;-53
2024/01/09 02:54:45;;;;;;;6.13;3.90;;;18.80;48.20;;;;;;5111703;27;20034;-52
2024/01/09 02:57:12;;;;;;;9.35;4.47;;;18.90;48.10;;;;;;5116563;27;20039;-54
2024/01/09 02:59:38;;;;;;;6.57;3.80;;;18.90;48.60;;;;;;5108976;28;20096;-54
2024/01/09 03:02:05;;;;;;;11.23;4.38;;;18.80;48.00;;;;;;5118714;27;20020;-51
2024/01/09 03:04:31;;;;;;;9.18;4.20;;;18.90;48.40;;;;;;5113390;27;20023;-51
2024/01/09 03:06:57;;;;;;;10.73;3.88;;;18.80;48.30;;;;;;5104284;27;20016;-56
2024/01/09 03:09:23;;;;;;;8.35;4.30;;;18.80;48.20;;;;;;5118711;27;20386;-50
2024/01/09 03:11:49;;;;;;;5.93;3.70;;;18.80;48.10;;;;;;5109363;27;20073;-55
2024/01/09 03:14:15;;;;;;;8.40;4.43;;;18.80;48.10;;;;;;5110644;28;20054;-52
2024/01/09 03:16:41;;;;;;;16.95;4.50;;;18.80;48.20;;;;;;5110442;28;20023;-52
2024/01/09 03:19:07;;;;;;;8.70;4.07;;;18.80;48.30;;;;;;5100548;28;20023;-55
2024/01/09 03:21:32;;;;;;;7.43;4.18;;;18.80;48.10;;;;;;5103126;28;20479;-54
2024/01/09 03:23:58;;;;;;;5.95;4.00;;;18.80;47.80;;;;;;5115237;27;20031;-56
2024/01/09 03:26:24;;;;;;;6.78;3.60;;;18.80;48.40;;;;;;5104357;28;20109;-53
2024/01/09 03:28:50;;;;;;;7.85;3.90;;;18.80;48.20;;;;;;5090364;28;20020;-53
2024/01/09 03:31:20;;;;;;;8.75;4.10;;;18.80;48.20;;;;;;5104852;27;20034;-53
2024/01/09 03:33:46;;;;;;;8.05;4.20;;;18.80;48.10;;;;;;5109697;27;20043;-54
2024/01/09 03:36:13;;;;;;;7.03;3.97;;;18.80;48.20;;;;;;5114943;27;20314;-49
2024/01/09 03:38:40;;;;;;;7.75;3.83;;;18.80;48.10;;;;;;5111433;27;20039;-51
2024/01/09 03:41:06;;;;;;;7.55;4.32;;;18.80;48.20;;;;;;5115903;27;20423;-55
2024/01/09 03:43:32;;;;;;;8.35;4.20;;;18.80;48.10;;;;;;5120230;27;20772;-55
2024/01/09 03:45:57;;;;;;;8.15;3.90;;;18.80;48.30;;;;;;5115537;27;20022;-57
2024/01/09 03:48:23;;;;;;;7.90;4.00;;;18.80;48.20;;;;;;5118573;27;20019;-56
2024/01/09 03:50:49;;;;;;;8.50;4.20;;;18.80;48.30;;;;;;5091336;28;20028;-52
2024/01/09 03:53:15;;;;;;;6.47;3.85;;;18.70;48.10;;;;;;5098831;27;20083;-54
2024/01/09 03:55:41;;;;;;;8.02;4.40;;;18.70;48.00;;;;;;5096646;27;20039;-57
2024/01/09 03:58:07;;;;;;;7.85;4.40;;;18.70;48.10;;;;;;5113665;27;20024;-55
2024/01/09 04:00:33;;;;;;;9.00;4.28;;;18.70;48.00;;;;;;5113496;27;20043;-56
2024/01/09 04:03:01;;;;;;;7.63;4.22;;;18.70;48.20;;;;;;5113081;27;20022;-55
2024/01/09 04:05:27;;;;;;;9.13;4.90;;;18.70;48.20;;;;;;5109053;28;20016;-56
2024/01/09 04:07:52;;;;;;;11.00;4.43;;;18.70;48.30;;;;;;5115614;27;20117;-56
2024/01/09 04:10:18;;;;;;;7.28;4.55;;;18.70;48.10;;;;;;5116083;27;20152;-54
2024/01/09 04:12:44;;;;;;;8.80;4.30;;;18.70;48.00;;;;;;5112120;27;20023;-53
2024/01/09 04:15:10;;;;;;;7.88;4.10;;;18.70;48.10;;;;;;5112067;27;20026;-50
2024/01/09 04:17:36;;;;;;;7.90;4.25;;;18.70;48.30;;;;;;5108693;28;20039;-50
2024/01/09 04:20:04;;;;;;;9.40;4.85;;;18.70;48.10;;;;;;5116160;27;20027;-56
2024/01/09 04:22:30;;;;;;;10.27;4.35;;;18.70;48.00;;;;;;5108550;27;20028;-51
2024/01/09 04:24:56;;;;;;;10.50;4.43;;;18.70;48.00;;;;;;5118344;27;20031;-48
2024/01/09 04:27:22;;;;;;;8.73;4.65;;;18.70;48.10;;;;;;5116973;27;20076;-53
2024/01/09 04:29:48;;;;;;;9.13;4.47;;;18.70;47.90;;;;;;5114735;27;20027;-51
2024/01/09 04:32:14;;;;;;;7.82;4.50;;;18.70;47.80;;;;;;5109756;28;20027;-53
2024/01/09 04:34:39;;;;;;;11.90;4.60;;;18.60;47.50;;;;;;5109246;28;20031;-48
2024/01/09 04:37:05;;;;;;;7.80;4.25;;;18.60;47.70;;;;;;5109842;27;20027;-53
2024/01/09 04:39:31;;;;;;;10.50;4.22;;;18.60;47.80;;;;;;5116769;27;20037;-51
2024/01/09 04:41:57;;;;;;;8.10;4.07;;;18.60;47.60;;;;;;5107967;28;20030;-55
2024/01/09 04:44:22;;;;;;;7.90;4.45;;;18.60;47.80;;;;;;5111812;27;20043;-53
2024/01/09 04:46:48;;;;;;;13.68;4.63;;;18.60;47.80;;;;;;5114014;27;20477;-48
2024/01/09 04:49:14;;;;;;;10.95;4.75;;;18.60;47.80;;;;;;5108125;28;20076;-53
2024/01/09 04:51:42;;;;;;;11.02;4.60;;;18.60;47.80;;;;;;5106673;28;20028;-51
2024/01/09 04:54:08;;;;;;;8.75;4.30;;;18.60;47.70;;;;;;5108034;27;20045;-54
2024/01/09 04:56:34;;;;;;;10.05;4.65;;;18.60;47.40;;;;;;5111752;27;20549;-51
2024/01/09 04:59:00;;;;;;;9.77;4.72;;;18.60;47.50;;;;;;5111882;27;20450;-56
2024/01/09 05:01:26;;;;;;;7.47;4.05;;;18.50;47.40;;;;;;5112338;27;20019;-52
2024/01/09 05:03:53;;;;;;;10.13;4.60;;;18.50;47.80;;;;;;5117056;27;20394;-54
2024/01/09 05:06:19;;;;;;;8.35;4.57;;;18.50;47.60;;;;;;5089238;28;20039;-51
2024/01/09 05:08:45;;;;;;;8.45;4.20;;;18.50;47.60;;;;;;5108543;28;20027;-54
2024/01/09 05:11:11;;;;;;;10.38;5.15;;;18.50;47.70;;;;;;5104111;28;20054;-53
2024/01/09 05:13:37;;;;;;;9.57;4.70;;;18.50;48.30;;;;;;5106793;28;20081;-53
2024/01/09 05:16:04;;;;;;;9.98;5.10;;;18.50;47.50;;;;;;5108277;27;20471;-52
2024/01/09 05:18:31;;;;;;;8.93;4.55;;;18.50;47.70;;;;;;5102973;28;20244;-56
2024/01/09 05:20:57;;;;;;;8.75;4.28;;;18.50;47.80;;;;;;5107698;28;20030;-48
2024/01/09 05:23:22;;;;;;;8.23;4.82;;;18.50;47.60;;;;;;5108228;28;20031;-49
2024/01/09 05:25:48;;;;;;;9.20;4.55;;;18.50;47.70;;;;;;5106796;28;20015;-51
2024/01/09 05:28:15;;;;;;;7.90;4.63;;;18.50;48.00;;;;;;5107488;28;20064;-51
2024/01/09 05:30:42;;;;;;;8.68;4.78;;;18.50;47.70;;;;;;5107945;28;20038;-50
2024/01/09 05:33:07;;;;;;;7.95;4.72;;;18.50;47.80;;;;;;5109255;28;20475;-50
2024/01/09 05:35:33;;;;;;;9.20;4.97;;;18.50;47.70;;;;;;5108436;28;20076;-52
2024/01/09 05:37:59;;;;;;;8.35;4.57;;;18.50;47.70;;;;;;5108997;28;20038;-55
2024/01/09 05:40:25;;;;;;;9.15;4.60;;;18.50;47.70;;;;;;5105923;28;20042;-50
2024/01/09 05:42:51;;;;;;;9.05;4.57;;;18.50;47.80;;;;;;5089543;28;20023;-56
2024/01/09 05:45:17;;;;;;;11.10;5.10;;;18.40;47.90;;;;;;5112769;28;20039;-56
2024/01/09 05:47:43;;;;;;;8.68;4.85;;;18.40;47.80;;;;;;5111810;28;20023;-51
2024/01/09 05:50:09;;;;;;;10.32;5.38;;;18.40;47.60;;;;;;5107079;28;20027;-54
2024/01/09 05:52:38;;;;;;;9.80;5.25;;;18.40;47.70;;;;;;5105420;28;20205;-53
2024/01/09 05:55:05;;;;;;;10.15;4.90;;;18.40;47.70;;;;;;5107136;28;20504;-51
2024/01/09 05:57:32;;;;;;;10.05;4.93;;;18.40;47.50;;;;;;5106464;28;20047;-56
2024/01/09 05:59:58;;;;;;;11.80;5.55;;;18.40;47.70;;;;;;5105962;28;20024;-52
2024/01/09 06:02:27;;;;;;;8.68;4.80;;;18.40;47.70;;;;;;5107484;28;20030;-53
2024/01/09 06:04:53;;;;;;;11.48;5.57;;;18.40;48.40;;;;;;5108238;28;20494;-54
2024/01/09 06:07:20;;;;;;;9.95;5.47;;;18.40;47.20;;;;;;5104531;28;20137;-51
2024/01/09 06:09:46;;;;;;;15.57;5.13;;;18.40;47.80;;;;;;5088616;28;20355;-54
2024/01/09 06:12:12;;;;;;;9.30;5.38;;;18.40;47.30;;;;;;5108541;28;20083;-53
2024/01/09 06:14:38;;;;;;;11.70;5.70;;;18.40;47.20;;;;;;5103980;28;20050;-55
2024/01/09 06:17:04;;;;;;;9.65;5.20;;;18.40;47.20;;;;;;5114124;28;20410;-53
2024/01/09 06:19:31;;;;;;;10.27;5.75;;;18.40;47.50;;;;;;5113746;27;20031;-57
2024/01/09 06:21:57;;;;;;;13.38;6.22;;;18.40;47.20;;;;;;5110015;27;20019;-53
2024/01/09 06:24:23;;;;;;;13.73;5.88;;;18.30;47.40;;;;;;5119288;27;20023;-54
2024/01/09 06:26:49;;;;;;;11.10;5.40;;;18.40;47.20;;;;;;5110026;27;20085;-51
2024/01/09 06:29:14;;;;;;;9.65;5.60;;;18.30;47.40;;;;;;5108450;27;20027;-55
2024/01/09 06:31:40;;;;;;;12.93;5.97;;;18.40;47.40;;;;;;5109523;28;20530;-54
2024/01/09 06:34:06;;;;;;;11.07;5.90;;;18.30;47.20;;;;;;5110992;28;20019;-51
2024/01/09 06:36:32;;;;;;;10.50;5.45;;;18.30;47.60;;;;;;5110689;28;20028;-54
2024/01/09 06:38:58;;;;;;;10.18;5.40;;;18.30;47.60;;;;;;5110007;28;20497;-51
2024/01/09 06:41:24;;;;;;;12.80;6.13;;;18.30;47.40;;;;;;5109308;28;20034;-52
2024/01/09 06:43:50;;;;;;;10.18;5.60;;;18.40;47.50;;;;;;5109002;28;20527;-56
2024/01/09 06:46:16;;;;;;;9.75;5.85;;;18.30;47.60;;;;;;5109567;28;20016;-51
2024/01/09 06:48:42;;;;;;;12.77;5.93;;;18.30;47.60;;;;;;5108562;28;20077;-55
2024/01/09 06:51:08;;;;;;;10.98;6.15;;;18.30;47.70;;;;;;5109614;28;20471;-53
2024/01/09 06:53:34;;;;;;;11.13;6.03;;;18.30;47.50;;;;;;5109431;28;20127;-55
2024/01/09 06:56:00;;;;;;;14.35;6.47;;;18.30;47.20;;;;;;5108481;28;20015;-51
2024/01/09 06:58:25;;;;;;;12.25;5.95;;;18.30;47.30;;;;;;5109505;28;20029;-54
2024/01/09 07:00:51;;;;;;;13.38;5.32;;;18.30;47.40;;;;;;5108556;28;20454;-53
2024/01/09 07:03:17;;;;;;;10.80;5.35;;;18.40;48.00;;;;;;5108954;28;20027;-50
2024/01/09 07:05:43;;;;;;;15.85;6.40;;;18.50;48.00;;;;;;5109240;27;20038;-49
2024/01/09 07:08:08;;;;;;;12.75;6.18;;;18.60;47.00;;;;;;5108817;28;20019;-51
2024/01/09 07:10:34;;;;;;;19.55;6.75;;;18.60;47.00;;;;;;5108615;28;20402;-50
2024/01/09 07:13:00;;;;;;;15.45;6.50;;;18.60;47.40;;;;;;5109269;28;20019;-47
2024/01/09 07:15:26;;;;;;;17.88;6.25;;;18.60;46.60;;;;;;5090717;28;20551;-51
2024/01/09 07:17:52;;;;;;;36.85;7.38;;;18.70;47.40;;;;;;5049194;22;20568;-47
2024/01/09 07:20:18;;;;;;;14.57;6.60;;;18.60;47.00;;;;;;5008092;28;20112;-48
2024/01/09 07:22:44;;;;;;;15.90;6.70;;;18.60;47.30;;;;;;5009228;28;20029;-47
2024/01/09 07:25:10;;;;;;;16.33;6.60;;;18.60;47.70;;;;;;5014473;28;20026;-49
2024/01/09 07:27:35;;;;;;;12.05;5.85;;;18.60;49.00;;;;;;5080399;28;20016;-50
2024/01/09 07:30:02;;;;;;;14.50;6.22;;;18.60;48.60;;;;;;5091366;28;20123;-54
2024/01/09 07:32:28;;;;;;;12.98;6.35;;;18.60;49.00;;;;;;5108035;28;20027;-46
2024/01/09 07:34:54;;;;;;;19.77;6.57;;;18.60;49.00;;;;;;5100095;28;20496;-47
2024/01/09 07:37:20;;;;;;;20.85;6.47;;;18.60;49.00;;;;;;5105902;28;20103;-50
2024/01/09 07:39:46;;;;;;;16.60;6.75;;;18.60;49.40;;;;;;5091474;28;20059;-50
2024/01/09 07:42:13;;;;;;;23.67;6.68;;;18.60;49.80;;;;;;5092046;28;20076;-51
2024/01/09 07:44:39;;;;;;;14.18;6.72;;;18.50;49.80;;;;;;5090533;28;20036;-50
2024/01/09 07:47:07;;;;;;;14.27;6.40;;;18.50;49.70;;;;;;5091711;28;20152;-47
2024/01/09 07:49:33;;;;;;;11.27;6.05;;;18.60;50.00;;;;;;5091568;28;20391;-53
2024/01/09 07:51:59;;;;;;;12.95;6.25;;;18.50;49.70;;;;;;5091390;28;20031;-50
2024/01/09 07:54:25;;;;;;;16.05;6.55;;;18.50;49.70;;;;;;5091739;28;20085;-48
2024/01/09 07:56:51;;;;;;;11.13;6.30;;;18.50;49.60;;;;;;5091646;28;20510;-50
2024/01/09 07:59:16;;;;;;;13.63;6.60;;;18.50;49.70;;;;;;5090207;28;20069;-53
2024/01/09 08:01:42;;;;;;;11.95;6.20;;;18.50;49.80;;;;;;5091537;28;20108;-51
2024/01/09 08:04:08;;;;;;;13.60;6.72;;;18.50;49.70;;;;;;5091574;28;20031;-51
2024/01/09 08:06:34;;;;;;;17.92;6.65;;;18.50;49.60;;;;;;5091225;28;20020;-52
2024/01/09 08:09:00;;;;;;;13.32;6.57;;;18.40;49.50;;;;;;5096989;28;20106;-53
2024/01/09 08:11:25;;;;;;;13.65;6.75;;;18.40;49.40;;;;;;5105915;28;20016;-54
2024/01/09 08:13:51;;;;;;;19.40;6.80;;;18.50;49.50;;;;;;5102331;28;20084;-48
2024/01/09 08:16:17;;;;;;;13.10;6.97;;;18.50;47.80;;;;;;5106353;28;20047;-48
2024/01/09 08:18:43;;;;;;;13.90;6.65;;;18.50;48.30;;;;;;5111246;28;20028;-52
2024/01/09 08:21:08;;;;;;;15.60;7.32;;;18.50;48.20;;;;;;5110723;28;20110;-52
2024/01/09 08:23:35;;;;;;;21.73;8.00;;;18.60;48.20;;;;;;5108765;28;20024;-52
2024/01/09 08:26:02;;;;;;;17.00;6.85;;;18.60;47.70;;;;;;5083032;28;20068;-50
2024/01/09 08:28:27;;;;;;;15.63;7.28;;;18.60;47.80;;;;;;5103277;28;20024;-48
2024/01/09 08:30:53;;;;;;;22.95;7.68;;;18.60;48.30;;;;;;5102898;28;20035;-50
2024/01/09 08:33:19;;;;;;;17.10;7.38;;;18.70;48.00;;;;;;5108895;28;20049;-51
2024/01/09 08:35:49;;;;;;;14.05;7.15;;;18.70;47.90;;;;;;5102709;28;20076;-50
2024/01/09 08:38:17;;;;;;;19.20;7.28;;;18.60;47.80;;;;;;5111101;28;20111;-47
2024/01/09 08:40:44;;;;;;;15.05;6.95;;;18.70;46.80;;;;;;5110464;28;20157;-49
2024/01/09 08:43:10;;;;;;;14.73;7.05;;;18.80;47.00;;;;;;5111258;28;20078;-47
2024/01/09 08:45:36;;;;;;;14.10;7.20;;;18.90;47.40;;;;;;5111166;28;20027;-50
2024/01/09 08:48:01;;;;;;;15.07;7.43;;;19.00;47.50;;;;;;5111036;28;20035;-49
2024/01/09 08:50:27;;;;;;;16.90;7.25;;;19.00;47.40;;;;;;5111200;28;20422;-48
2024/01/09 08:52:54;;;;;;;13.48;7.00;;;19.10;47.20;;;;;;5092873;28;20554;-51
2024/01/09 08:55:20;;;;;;;12.13;6.32;;;19.10;47.10;;;;;;5111141;28;20147;-49
2024/01/09 08:57:46;;;;;;;13.75;6.95;;;19.20;47.00;;;;;;5110778;28;20115;-49
2024/01/09 09:00:13;;;;;;;16.48;7.30;;;19.20;47.00;;;;;;5110514;28;20493;-47
2024/01/09 09:02:39;;;;;;;13.30;7.15;;;19.30;46.90;;;;;;5110883;28;20424;-46
2024/01/09 09:05:05;;;;;;;12.45;6.75;;;19.30;46.80;;;;;;5110893;28;20031;-46
2024/01/09 09:07:31;;;;;;;16.55;7.28;;;19.30;46.80;;;;;;5110615;28;20527;-53
2024/01/09 09:09:57;;;;;;;14.65;6.88;;;19.30;46.70;;;;;;5110511;28;20034;-46
2024/01/09 09:12:23;;;;;;;14.05;7.00;;;19.30;46.70;;;;;;5110738;28;20028;-52
2024/01/09 09:14:49;;;;;;;13.85;6.78;;;19.30;46.70;;;;;;5110771;28;20068;-48
2024/01/09 09:17:16;;;;;;;13.73;6.80;;;19.30;46.70;;;;;;5110562;28;20024;-50
2024/01/09 09:19:42;;;;;;;12.63;6.97;;;19.30;46.70;;;;;;5092256;28;20523;-48
2024/01/09 09:22:07;;;;;;;13.45;7.50;;;19.30;46.70;;;;;;5110574;28;20050;-49
2024/01/09 09:24:33;;;;;;;12.50;6.90;;;19.30;46.60;;;;;;5110486;28;20023;-51
2024/01/09 09:26:59;;;;;;;11.70;7.18;;;19.30;46.60;;;;;;5110587;28;20032;-47
2024/01/09 09:29:26;;;;;;;16.15;7.35;;;19.30;46.60;;;;;;5092466;28;20039;-48
2024/01/09 09:31:51;;;;;;;13.25;7.20;;;19.30;47.10;;;;;;5092448;28;20038;-49
2024/01/09 09:34:17;;;;;;;13.80;7.55;;;19.30;46.50;;;;;;5092231;28;20036;-51
2024/01/09 09:36:43;;;;;;;13.05;6.90;;;19.30;46.50;;;;;;5110329;28;20028;-51
2024/01/09 09:39:10;;;;;;;19.13;8.02;;;19.20;46.50;;;;;;5110090;28;20571;-47
2024/01/09 09:41:36;;;;;;;13.30;7.22;;;19.20;46.50;;;;;;5110451;28;20085;-48
2024/01/09 09:44:09;;;;;;;12.85;7.30;;;19.20;46.50;;;;;;5110397;28;20016;-47
2024/01/09 09:46:39;;;;;;;14.57;7.13;;;19.20;46.50;;;;;;5092175;28;20019;-50
2024/01/09 09:49:07;;;;;;;11.10;6.38;;;19.20;46.50;;;;;;5110338;28;20073;-48
2024/01/09 09:51:35;;;;;;;14.85;7.10;;;19.10;46.50;;;;;;5111126;28;20027;-49
2024/01/09 09:54:02;;;;;;;12.15;7.03;;;19.10;46.50;;;;;;5114407;28;20153;-47
2024/01/09 09:56:28;;;;;;;13.32;7.50;;;19.20;46.40;;;;;;5114421;28;20475;-51
2024/01/09 09:58:54;;;;;;;14.45;7.72;;;19.20;46.30;;;;;;5114165;28;20474;-48
2024/01/09 10:01:22;;;;;;;15.63;7.80;;;19.20;46.10;;;;;;5114402;28;20055;-50
2024/01/09 10:04:29;;;;;;;13.32;7.28;;;19.20;46.10;;;;;;5114377;28;20028;-52
2024/01/09 10:06:57;;;;;;;18.27;7.10;;;19.20;46.30;;;;;;5031037;28;20064;-47
2024/01/09 10:09:27;;;;;;;13.25;7.80;;;19.20;46.40;;;;;;5014299;28;20037;-49
2024/01/09 10:11:54;;;;;;;13.30;6.88;;;19.20;46.40;;;;;;5031113;28;20073;-48
2024/01/09 10:14:20;;;;;;;14.38;7.20;;;19.20;46.30;;;;;;5031263;28;20648;-51
2024/01/09 10:16:50;;;;;;;14.15;7.57;;;19.20;46.30;;;;;;5030993;28;20048;-49
2024/01/09 10:19:16;;;;;;;12.13;7.20;;;19.20;46.20;;;;;;5030723;28;20061;-51
2024/01/09 10:21:43;;;;;;;12.88;7.07;;;19.20;46.10;;;;;;5031017;28;20084;-47
2024/01/09 10:24:08;;;;;;;15.25;7.63;;;19.20;46.10;;;;;;5030782;28;20037;-47
2024/01/09 10:26:34;;;;;;;13.02;7.00;;;19.30;46.10;;;;;;5030836;28;20124;-49
2024/01/09 10:29:01;;;;;;;12.38;6.85;;;19.30;46.10;;;;;;5030579;28;20079;-50
2024/01/09 10:31:29;;;;;;;12.38;6.72;;;19.30;46.10;;;;;;5030751;28;20084;-48
2024/01/09 10:33:56;;;;;;;14.07;7.63;;;19.30;46.20;;;;;;5031117;28;20067;-47
2024/01/09 10:36:22;;;;;;;12.82;6.88;;;19.30;46.20;;;;;;5030864;28;20049;-50
2024/01/09 10:38:48;;;;;;;12.77;6.65;;;19.30;46.30;;;;;;5112938;28;20046;-51
2024/01/09 10:41:18;;;;;;;13.18;7.18;;;19.30;46.40;;;;;;5113529;28;20072;-52
2024/01/09 10:43:44;;;;;;;;;;;19.20;46.30;;;;;;5113937;28;20024;-53
2024/01/09 10:46:10;;;;;;;12.32;7.22;;;19.20;46.20;;;;;;5113894;28;19940;-48
2024/01/09 10:48:38;;;;;;;14.23;7.93;;;19.20;46.30;;;;;;5112990;28;20020;-48
2024/01/09 10:51:04;;;;;;;13.80;7.43;;;19.20;46.40;;;;;;5113423;28;20122;-48
2024/01/09 10:53:33;;;;;;;16.42;8.13;;;19.20;46.30;;;;;;5113358;28;20035;-47
2024/01/09 10:56:00;;;;;;;14.10;7.70;;;19.10;46.30;;;;;;5113367;28;20028;-48
2024/01/09 10:58:27;;;;;;;12.82;7.45;;;19.00;46.20;;;;;;5095007;28;20129;-48
2024/01/09 11:00:53;;;;;;;14.02;7.97;;;19.00;46.30;;;;;;5113248;28;20108;-51
2024/01/09 11:03:19;;;;;;;15.45;7.90;;;19.00;46.00;;;;;;5112376;28;20417;-50
2024/01/09 11:05:49;;;;;;;13.77;7.60;;;19.00;46.30;;;;;;5113091;28;20031;-47
2024/01/09 11:08:18;;;;;;;12.27;7.15;;;19.00;46.40;;;;;;5113108;28;20426;-47
2024/01/09 11:10:44;;;;;;;13.27;7.15;;;19.00;46.20;;;;;;5112848;28;20031;-47
2024/01/09 11:13:12;;;;;;;13.68;7.55;;;19.00;46.10;;;;;;5094548;28;20066;-48
2024/01/09 11:15:46;;;;;;;15.15;7.85;;;19.00;46.30;;;;;;5113056;28;20069;-47
2024/01/09 11:18:16;;;;;;;13.23;7.00;;;19.00;46.20;;;;;;5112667;28;20031;-48
2024/01/09 11:20:43;;;;;;;12.48;6.78;;;19.00;46.20;;;;;;5094593;28;20031;-48
2024/01/09 11:23:12;;;;;;;15.75;8.13;;;19.00;46.00;;;;;;5112879;28;20038;-52
2024/01/09 11:25:38;;;;;;;14.40;7.53;;;19.00;46.10;;;;;;5112713;28;20110;-48
2024/01/09 11:28:04;;;;;;;14.30;7.15;;;19.10;46.30;;;;;;5112524;28;20081;-49
2024/01/09 11:30:31;;;;;;;13.88;6.90;;;19.10;46.10;;;;;;5112339;28;20040;-48
2024/01/09 11:33:26;;;;;;;14.90;7.78;;;19.20;46.20;;;;;;5094356;28;20023;-51
2024/01/09 11:35:54;;;;;;;15.52;7.68;;;19.20;46.30;;;;;;5103509;28;20043;-48
2024/01/09 11:38:21;;;;;;;13.45;7.30;;;19.20;46.10;;;;;;5112090;28;20019;-47
2024/01/09 11:40:47;;;;;;;12.95;7.25;;;19.20;46.10;;;;;;5112253;28;20423;-48
2024/01/09 11:43:12;;;;;;;14.68;7.55;;;19.20;46.30;;;;;;5112347;28;20035;-49
2024/01/09 11:45:39;;;;;;;14.13;7.43;;;19.20;46.20;;;;;;5112464;28;20027;-49
2024/01/09 11:48:06;;;;;;;14.38;7.75;;;19.10;46.10;;;;;;5112115;28;20030;-55
2024/01/09 11:50:31;;;;;;;13.57;7.57;;;19.20;46.10;;;;;;5111989;28;20550;-47
2024/01/09 11:52:58;;;;;;;13.43;7.43;;;19.10;46.10;;;;;;5094108;28;20119;-50
2024/01/09 11:55:25;;;;;;;13.85;7.50;;;19.10;46.10;;;;;;5112224;28;20415;-48
2024/01/09 11:57:52;;;;;;;13.18;7.50;;;19.10;46.20;;;;;;5112243;28;20028;-52
2024/01/09 12:00:17;;;;;;;15.65;7.78;;;19.10;46.50;;;;;;5111925;28;20479;-49
2024/01/09 12:02:43;;;;;;;20.48;7.63;;;19.10;46.80;;;;;;5109073;27;20097;-50
2024/01/09 12:05:09;;;;;;;14.57;6.90;;;19.20;47.50;;;;;;5104011;27;20091;-47
2024/01/09 12:07:37;;;;;;;13.70;7.35;;;19.20;47.00;;;;;;5120618;27;20027;-47
2024/01/09 12:10:05;;;;;;;15.15;6.88;;;19.30;47.30;;;;;;5092738;28;20024;-49
2024/01/09 12:12:31;;;;;;;17.80;8.35;;;19.30;48.10;;;;;;5097102;27;20119;-47
2024/01/09 12:14:58;;;;;;;16.38;7.40;;;19.40;49.10;;;;;;5117053;27;20035;-50
2024/01/09 12:17:33;;;;;;;15.55;7.85;;;19.40;48.30;;;;;;5110087;27;20118;-54
2024/01/09 12:20:00;;;;;;;26.45;8.60;;;19.40;48.20;;;;;;5130609;27;20027;-47
2024/01/09 12:22:26;;;;;;;17.05;7.60;;;19.40;48.50;;;;;;5131839;27;20019;-53
2024/01/09 12:24:54;;;;;;;18.00;7.80;;;19.50;48.40;;;;;;5099469;27;20016;-54
2024/01/09 12:27:23;;;;;;;16.00;7.80;;;19.50;48.60;;;;;;5108176;28;20402;-50
2024/01/09 12:29:53;;;;;;;16.30;7.93;;;19.50;48.60;;;;;;5081988;27;20063;-51
2024/01/09 12:32:21;;;;;;;13.77;7.45;;;19.50;48.50;;;;;;5109259;28;20028;-54
2024/01/09 12:34:47;;;;;;;17.15;7.45;;;19.60;48.40;;;;;;5108938;27;20088;-48
2024/01/09 12:37:13;;;;;;;18.13;7.68;;;19.60;48.30;;;;;;5108520;28;20032;-47